Middlebury, VT (05753)

5:38 PM EDT on August 03, 2015 (GMT -0400)
EastView | | Change Station
CLOSE
Current Station
Personal Weather Station
Location: Middlebury, VT
Elevation: 390 ft
Nearby Weather Stations
Active Advisory: Severe Thunderstorm Watch Active Notice: Local Storm Report

Elev 390 ft 44.00 °N, 73.17 °W | Updated 5 minutes ago

Scattered Clouds
Scattered Clouds
80.1 °F
Feels Like 83 °F
N
6.0
Wind Variable Wind from SW
Gusts 9.0 mph

Today
High -- | Low -- °F
--% Chance of Precip.
Yesterday
High -- | Low -- °F
Precip. -- in
5:42 AM 8:14 PM
Waning Gibbous, 84% visible
Pressure 29.70 in
Visibility 10.0 miles
Clouds Scattered Clouds 12000 ft
Heat Index 83 °F
Dew Point 68 °F
Humidity 67%
Rainfall 0.16 in
Snow Depth Not available.
UV 3 out of 12
Pollen 3.90 out of 12
Air Quality Not available.
Flu Activity Not available.
METAR K6B0 032115Z AUTO 16003KT 10SM SCT120 28/18 A2970 RMK AO2 T02750184

More Conditions Fewer Conditions

Pressure 29.70 in
Visibility 10.0 miles
Clouds Scattered Clouds 12000 ft
Heat Index 83 °F
Dew Point 68 °F
Humidity 67%
Rainfall 0.16 in
Snow Depth Not available.
UV 3 out of 12
Pollen 3.90 out of 12
Air Quality Not available.
Flu Activity Not available.
METAR K6B0 032115Z AUTO 16003KT 10SM SCT120 28/18 A2970 RMK AO2 T02750184

More Conditions Fewer Conditions

10-Day Weather Forecast

×

Almanac

Astronomy

Aug. 03, 2015 Rise Set
Actual Time
Civil Twilight
Nautical Twilight
Astronomical Twilight
Moon
Length of Visible Light
Length of Day
Tomorrow will be .
, % of the Moon is Illuminated

Today's Extremes

State Highs State Lows

Community

WunderPhotos

Upload Photos

1,843,772 photos uploaded!

WunderBlogs® & News

Nearby

Air Quality

  Air Quality AQ Index Pollutant
Not available.

Snow Depth

Station Depth Elevation

Earthquake Activity

City Distance Mag. Time & Date
Minimum magnitude displayed is 2.5.

Coastal Water Temperatures

Place Temperature

Stations

Nearby Weather Stations

Station Location Temp. Windchill Dew Point Humidity Wind Precip. Elev Updated Type
                   
Severe Thunderstorm Watch
Statement as of 5:24 PM EDT on August 03, 2015

Severe Thunderstorm Watch 466 remains in effect until 900 PM EDT

VT
. Vermont counties included are

Addison Caledonia Chittenden
Essex Franklin Grand Isle
LaMoille Orange Orleans
Rutland Washington Windsor